ADDS METAR Data INFO
IDs: Format: Raw Decoded Include TAF

Data at: 0301 UTC 21 Oct 2017

KMOP 210253Z AUTO 00000KT 10SM CLR 18/10 A3009 RMK AO2 T01750103
KMOP 210233Z AUTO 18003KT 10SM CLR 17/10 A3009 RMK AO2 T01700103
KMOP 210213Z AUTO 00000KT 10SM CLR 16/10 A3009 RMK AO2 T01630101
KMOP 210153Z AUTO 00000KT 10SM CLR 18/10 A3009 RMK AO2 T01760103
KMOP 210133Z AUTO 00000KT 10SM CLR 17/10 A3009 RMK AO2 T01680102
KMOP 210113Z AUTO 00000KT 10SM CLR 19/10 A3008 RMK AO2 T01850103
KMOP 210054Z AUTO 20003KT 10SM CLR 19/10 A3008 RMK AO2 T01890102
KMOP 210033Z AUTO 18004KT 10SM CLR 20/10 A3008 RMK AO2 T01960102
KMOP 210013Z AUTO 18003KT 10SM CLR 20/10 A3008 RMK AO2 T02000102
KMOP 202354Z AUTO 18003KT 10SM CLR 20/10 A3009 RMK AO2 T02020101 10260 20195
KMOP 202333Z AUTO 16003KT 10SM CLR 20/10 A3009 RMK AO2 T01990103
KMOP 202313Z AUTO 00000KT 10SM CLR 21/10 A3008 RMK AO2 T02110097
KMOP 202253Z AUTO 18003KT 10SM CLR 23/09 A3008 RMK AO2 T02250091
KMOP 202233Z AUTO 21005KT 10SM CLR 23/09 A3008 RMK AO2 T02330090
KMOP 202213Z AUTO 20005KT 10SM CLR 24/09 A3008 RMK AO2 T02410086
KMOP 202153Z AUTO 22009KT 10SM CLR 25/09 A3008 RMK AO2 T02470087
KMOP 202133Z AUTO 21007KT 10SM CLR 25/09 A3008 RMK AO2 T02520089
KMOP 202113Z AUTO 22009G14KT 10SM CLR 25/09 A3008 RMK AO2 T02530085
KMOP 202053Z AUTO 21011G17KT 10SM CLR 25/08 A3008 RMK AO2 T02500084
KMOP 202033Z AUTO 21010KT 10SM CLR 26/08 A3009 RMK AO2 T02550082
KMOP 202013Z AUTO 20009G15KT 10SM CLR 26/08 A3009 RMK AO2 T02600082
KMOP 201953Z AUTO 21009KT 10SM CLR 26/08 A3009 RMK AO2 T02560083
KMOP 201933Z AUTO 23013KT 10SM CLR 26/08 A3010 RMK AO2 T02600078
KMOP 201914Z AUTO 21011KT 10SM CLR 26/08 A3010 RMK AO2 T02570082
KMOP 201853Z AUTO 21012G18KT 10SM CLR 26/08 A3010 RMK AO2 T02590083
KMOP 201833Z AUTO 20013G16KT 10SM CLR 26/09 A3011 RMK AO2 T02590085
KMOP 201814Z AUTO 21009G17KT 10SM CLR 25/08 A3012 RMK AO2 T02520083
KMOP 201753Z AUTO 22010G15KT 10SM CLR 25/09 A3012 RMK AO2 T02510085 10251 20049
KMOP 201733Z AUTO 21007KT 10SM CLR 25/09 A3014 RMK AO2 T02460085
KMOP 201714Z AUTO 22010KT 10SM CLR 24/09 A3015 RMK AO2 T02440085
KMOP 201653Z AUTO 21013G17KT 10SM CLR 24/08 A3016 RMK AO2 T02400084
KMOP 201633Z AUTO 21010G14KT 10SM CLR 24/09 A3016 RMK AO2 T02370085
KMOP 201613Z AUTO 21011G14KT 10SM CLR 23/08 A3017 RMK AO2 T02260080
KMOP 201553Z AUTO 22007KT 10SM CLR 22/08 A3017 RMK AO2 T02170081
KMOP 201533Z AUTO 20005KT 10SM CLR 21/08 A3018 RMK AO2 T02050076
KMOP 201513Z AUTO 20004KT 10SM CLR 19/07 A3018 RMK AO2 T01920068
KMOP 201453Z AUTO 19005KT 10SM CLR 18/06 A3019 RMK AO2 T01800060
KMOP 201433Z AUTO 21006KT 10SM CLR 17/05 A3019 RMK AO2 T01660047
KMOP 201413Z AUTO 21006KT 10SM CLR 15/04 A3020 RMK AO2 T01540036
KMOP 201353Z AUTO 21005KT 10SM CLR 14/02 A3019 RMK AO2 T01410023
KMOP 201333Z AUTO 19003KT 10SM CLR 13/02 A3019 RMK AO2 T01300020
KMOP 201313Z AUTO 17003KT 10SM CLR 11/02 A3019 RMK AO2 T01100021
KMOP 201253Z AUTO 00000KT 10SM CLR 08/04 A3019 RMK AO2 T00820037
KMOP 201234Z AUTO 00000KT 10SM CLR 06/04 A3019 RMK AO2 T00570036
KMOP 201213Z AUTO 00000KT 10SM CLR 05/03 A3019 RMK AO2 T00500031
KMOP 201153Z AUTO 00000KT 10SM CLR 06/04 A3019 RMK AO2 T00570035 10074 20043
KMOP 201134Z AUTO 00000KT 10SM CLR 05/03 A3019 RMK AO2 T00460029
KMOP 201113Z AUTO 00000KT 10SM CLR 05/03 A3019 RMK AO2 T00450029
KMOP 201053Z AUTO 00000KT 10SM CLR 05/03 A3019 RMK AO2 T00460031
KMOP 201034Z AUTO 00000KT 10SM CLR 05/03 A3018 RMK AO2 T00500028
KMOP 201013Z AUTO 00000KT 10SM CLR 06/03 A3018 RMK AO2 T00560030
KMOP 200953Z AUTO 00000KT 10SM CLR 05/03 A3018 RMK AO2 T00520033
KMOP 200933Z AUTO 00000KT 10SM CLR 05/03 A3018 RMK AO2 T00480027
KMOP 200913Z AUTO 00000KT 10SM CLR 06/03 A3018 RMK AO2 T00550034
KMOP 200853Z AUTO 00000KT 10SM CLR 05/04 A3017 RMK AO2 T00530035
KMOP 200834Z AUTO 00000KT 10SM CLR 05/03 A3017 RMK AO2 T00470029
KMOP 200813Z AUTO 00000KT 10SM CLR 06/03 A3018 RMK AO2 T00550031
KMOP 200753Z AUTO 00000KT 10SM CLR 06/03 A3018 RMK AO2 T00610031
KMOP 200734Z AUTO 00000KT 10SM CLR 06/03 A3018 RMK AO2 T00600030
KMOP 200713Z AUTO 00000KT 10SM CLR 06/03 A3017 RMK AO2 T00600027
KMOP 200653Z AUTO 00000KT 10SM CLR 07/03 A3018 RMK AO2 T00680030
KMOP 200633Z AUTO 00000KT 10SM CLR 07/03 A3018 RMK AO2 T00680027
KMOP 200613Z AUTO 00000KT 10SM CLR 07/03 A3017 RMK AO2 T00740028
KMOP 200553Z AUTO 00000KT 10SM CLR 07/03 A3018 RMK AO2 T00690025 10131 20066 402060066
KMOP 200533Z AUTO 00000KT 10SM CLR 07/02 A3017 RMK AO2 T00690023
KMOP 200513Z AUTO 00000KT 10SM CLR 09/03 A3017 RMK AO2 T00870027
KMOP 200453Z AUTO 25004KT 10SM CLR 09/03 A3017 RMK AO2 T00900026
KMOP 200433Z AUTO 26003KT 10SM CLR 09/02 A3017 RMK AO2 T00860018
KMOP 200413Z AUTO 25003KT 10SM CLR 10/01 A3017 RMK AO2 T00990012
KMOP 200353Z AUTO 26003KT 10SM CLR 10/01 A3017 RMK AO2 T01040008
KMOP 200333Z AUTO 24003KT 10SM CLR 11/01 A3017 RMK AO2 T01050006
KMOP 200313Z AUTO 00000KT 10SM CLR 11/01 A3016 RMK AO2 T01090007
KMOP 200254Z AUTO 24004KT 10SM CLR 10/01 A3016 RMK AO2 T01030011
KMOP 200233Z AUTO 25004KT 10SM CLR 11/01 A3016 RMK AO2 T01050008
KMOP 200213Z AUTO 25005KT 10SM CLR 11/00 A3016 RMK AO2 T01080004
KMOP 200154Z AUTO 23004KT 10SM CLR 09/02 A3015 RMK AO2 T00880022
KMOP 200133Z AUTO 24003KT 10SM CLR 10/02 A3015 RMK AO2 T01000020
KMOP 200113Z AUTO 00000KT 10SM CLR 10/02 A3015 RMK AO2 T01010016
KMOP 200054Z AUTO 00000KT 10SM CLR 11/01 A3015 RMK AO2 T01090011
KMOP 200033Z AUTO 00000KT 10SM CLR 10/01 A3015 RMK AO2 T01030011
KMOP 200013Z AUTO 00000KT 10SM CLR 12/00 A3014 RMK AO2 T01180001
KMOP 192354Z AUTO 00000KT 10SM CLR 14/M01 A3014 RMK AO2 T01381012 10206 20137
KMOP 192333Z AUTO 26003KT 10SM CLR 15/M02 A3014 RMK AO2 T01471025
KMOP 192313Z AUTO 26004KT 10SM CLR 15/M03 A3013 RMK AO2 T01511027
KMOP 192254Z AUTO 26003KT 10SM CLR 17/M03 A3013 RMK AO2 T01651035
KMOP 192233Z AUTO 27005KT 10SM CLR 17/M04 A3012 RMK AO2 T01741040
KMOP 192213Z AUTO 26005KT 10SM CLR 18/M04 A3011 RMK AO2 T01811045
KMOP 192153Z AUTO 26007KT 7SM CLR 19/M05 A3010 RMK AO2 T01871046
KMOP 192133Z AUTO 27006KT 10SM CLR 19/M06 A3010 RMK AO2 T01871061
KMOP 192113Z AUTO 27007G15KT 10SM CLR 19/M07 A3010 RMK AO2 T01921070
KMOP 192053Z AUTO 27009G16KT 10SM CLR 20/M09 A3009 RMK AO2 T01951086
KMOP 192033Z AUTO 28008G16KT 10SM CLR 20/M09 A3010 RMK AO2 T02001090
KMOP 192013Z AUTO 26011G16KT 10SM CLR 20/M08 A3009 RMK AO2 T02001083
KMOP 191953Z AUTO 26011G17KT 10SM CLR 21/M08 A3008 RMK AO2 T02051079
KMOP 191933Z AUTO 29009G16KT 10SM CLR 20/M09 A3008 RMK AO2 T02031091
KMOP 191913Z AUTO 27012G20KT 10SM CLR 20/M08 A3008 RMK AO2 T02031084
KMOP 191853Z AUTO 28009G16KT 10SM CLR 20/M07 A3008 RMK AO2 T02011072
KMOP 191834Z AUTO 29012G19KT 250V310 10SM CLR 20/M08 A3008 RMK AO2 T02011078
KMOP 191758Z AUTO 27014G20KT 240V300 10SM CLR 20/M06 A3009 RMK AO2 T01951063 10200 20125
KMOP 191734Z AUTO 26010G20KT 10SM CLR 20/M06 A3009 RMK AO2 T01981061
KMOP 191713Z AUTO 27011G17KT 240V330 10SM CLR 19/M06 A3010 RMK AO2 T01931061
KMOP 191653Z AUTO 28009G15KT 10SM CLR 19/M04 A3010 RMK AO2 T01921040
KMOP 191634Z AUTO 27010KT 10SM CLR 19/M03 A3009 RMK AO2 T01861029
KMOP 191613Z AUTO 28006G15KT 10SM CLR 18/M02 A3009 RMK AO2 T01791016
KMOP 191553Z AUTO 26009G14KT 10SM CLR 18/00 A3009 RMK AO2 T01771001
KMOP 191534Z AUTO 29008KT 10SM CLR 17/00 A3009 RMK AO2 T01710004
KMOP 191513Z AUTO 27010KT 10SM CLR 17/01 A3008 RMK AO2 T01680010